createdAt,value
2017-09-11T00:00:02.816Z,95936.02
2017-09-11T00:02:30.309Z,95939.73
2017-09-11T00:04:57.714Z,95933.41
2017-09-11T00:07:25.135Z,95937.94
2017-09-11T00:09:52.572Z,95937.10
2017-09-11T00:12:19.984Z,95944.37
2017-09-11T00:14:47.415Z,95939.84
2017-09-11T00:17:14.889Z,95939.56
2017-09-11T00:19:42.321Z,95928.61
2017-09-11T00:22:09.745Z,95935.98
2017-09-11T00:24:37.182Z,95937.91
2017-09-11T00:27:04.674Z,95931.87
2017-09-11T00:29:32.097Z,95928.75
2017-09-11T00:31:59.633Z,95934.61
2017-09-11T00:34:27.060Z,95930.50
2017-09-11T00:36:54.486Z,95939.42
2017-09-11T00:39:21.926Z,95936.13
2017-09-11T00:41:49.358Z,95936.78
2017-09-11T00:44:16.787Z,95936.26
2017-09-11T00:46:44.286Z,95932.58
2017-09-11T00:49:11.708Z,95926.78
2017-09-11T00:51:39.134Z,95925.84
2017-09-11T00:54:06.608Z,95925.84
2017-09-11T00:56:34.048Z,95929.13
2017-09-11T00:59:01.504Z,95927.88
2017-09-11T01:01:28.953Z,95930.75
2017-09-11T01:03:56.356Z,95924.33
2017-09-11T01:06:23.773Z,95919.38
2017-09-11T01:08:51.249Z,95914.05
2017-09-11T01:11:18.653Z,95920.33
2017-09-11T01:13:46.082Z,95918.95
2017-09-11T01:16:13.539Z,95924.99
2017-09-11T01:18:40.962Z,95922.39
2017-09-11T01:21:08.396Z,95917.06
2017-09-11T01:23:35.837Z,95919.38
2017-09-11T01:26:03.294Z,95924.58
2017-09-11T01:28:30.721Z,95925.66
2017-09-11T01:30:58.174Z,95920.30
2017-09-11T01:33:25.591Z,95920.99
2017-09-11T01:35:53.010Z,95912.78
2017-09-11T01:38:20.466Z,95917.45
2017-09-11T01:40:47.913Z,95915.13
2017-09-11T01:43:15.354Z,95907.87
2017-09-11T01:45:42.800Z,95910.70
2017-09-11T01:48:10.226Z,95912.50
2017-09-11T01:50:37.710Z,95904.84
2017-09-11T01:53:05.202Z,95903.34
2017-09-11T01:55:32.625Z,95893.89
2017-09-11T01:58:00.049Z,95895.66
2017-09-11T02:00:27.482Z,95896.49
2017-09-11T02:02:54.898Z,95890.59
2017-09-11T02:05:22.312Z,95893.05
2017-09-11T02:07:49.843Z,95884.31
2017-09-11T02:10:17.271Z,95875.92
2017-09-11T02:12:44.683Z,95879.51
2017-09-11T02:15:12.113Z,95876.77
2017-09-11T02:17:39.527Z,95869.08
2017-09-11T02:20:06.939Z,95865.39
2017-09-11T02:22:34.588Z,95863.08
2017-09-11T02:25:02.005Z,95864.98
2017-09-11T02:27:29.420Z,95866.06
2017-09-11T02:29:56.854Z,95860.87
2017-09-11T02:32:24.309Z,95863.33
2017-09-11T02:34:51.770Z,95861.82
2017-09-11T02:37:19.368Z,95861.43
2017-09-11T02:39:46.805Z,95857.33
2017-09-11T02:42:14.324Z,95858.69
2017-09-11T02:44:41.852Z,95852.23
2017-09-11T02:47:09.272Z,95848.27
2017-09-11T02:49:36.678Z,95853.75
2017-09-11T02:52:04.138Z,95855.26
2017-09-11T02:54:31.562Z,95852.63
2017-09-11T02:56:58.998Z,95856.45
2017-09-11T02:59:26.564Z,95854.14
2017-09-11T03:01:53.983Z,95855.26
2017-09-11T03:04:21.424Z,95849.08
2017-09-11T03:06:49.496Z,95850.31
2017-09-11T03:09:16.919Z,95852.77
2017-09-11T03:11:44.329Z,95846.45
2017-09-11T03:14:11.821Z,95845.50
2017-09-11T03:16:39.267Z,95841.81
2017-09-11T03:19:06.715Z,95844.55
2017-09-11T03:21:34.169Z,95844.27
2017-09-11T03:24:01.604Z,95845.08
2017-09-11T03:26:29.549Z,95843.61
2017-09-11T03:28:57.629Z,95833.60
2017-09-11T03:31:25.153Z,95836.17
2017-09-11T03:33:52.574Z,95830.97
2017-09-11T03:36:20.114Z,95826.20
2017-09-11T03:38:47.959Z,95825.64
2017-09-11T03:41:15.380Z,95818.94
2017-09-11T03:43:42.889Z,95820.02
2017-09-11T03:46:10.326Z,95815.64
2017-09-11T03:48:37.742Z,95816.63
2017-09-11T03:51:05.302Z,95812.90
2017-09-11T03:53:32.720Z,95806.34
2017-09-11T03:56:00.141Z,95796.83
2017-09-11T03:58:27.602Z,95795.78
2017-09-11T04:00:55.071Z,95784.94
2017-09-11T04:03:22.492Z,95782.73
2017-09-11T04:05:49.963Z,95781.78
2017-09-11T04:08:17.368Z,95781.92
2017-09-11T04:10:44.807Z,95784.23
2017-09-11T04:13:12.259Z,95777.81
2017-09-11T04:15:39.705Z,95770.02
2017-09-11T04:18:07.145Z,95768.23
2017-09-11T04:20:34.566Z,95771.64
2017-09-11T04:23:01.998Z,95763.29
2017-09-11T04:25:29.456Z,95770.13
2017-09-11T04:27:56.891Z,95767.12
2017-09-11T04:30:24.305Z,95767.12
2017-09-11T04:32:51.728Z,95767.67
2017-09-11T04:35:19.164Z,95754.27
2017-09-11T04:37:46.587Z,95749.77
2017-09-11T04:40:14.083Z,95748.94
2017-09-11T04:42:41.600Z,95750.36
2017-09-11T04:45:09.031Z,95755.70
2017-09-11T04:47:36.460Z,95753.38
2017-09-11T04:50:03.910Z,95749.41
2017-09-11T04:52:31.372Z,95749.27
2017-09-11T04:54:58.796Z,95753.80
2017-09-11T04:57:26.270Z,95748.74
2017-09-11T04:59:53.717Z,95753.80
2017-09-11T05:02:21.136Z,95744.91
2017-09-11T05:04:49.344Z,95740.39
2017-09-11T05:07:16.771Z,95744.50
2017-09-11T05:09:44.199Z,95733.13
2017-09-11T05:12:11.641Z,95739.97
2017-09-11T05:14:39.069Z,95741.73
2017-09-11T05:17:06.533Z,95746.00
2017-09-11T05:19:33.954Z,95750.39
2017-09-11T05:22:01.381Z,95755.17
2017-09-11T05:24:28.801Z,95760.78
2017-09-11T05:26:56.235Z,95756.25
2017-09-11T05:29:23.725Z,95755.70
2017-09-11T05:31:51.191Z,95760.78
2017-09-11T05:34:18.654Z,95760.22
2017-09-11T05:36:46.749Z,95759.27
2017-09-11T05:39:14.160Z,95765.36
2017-09-11T05:41:41.606Z,95763.91
2017-09-11T05:44:09.016Z,95762.77
2017-09-11T05:46:36.495Z,95765.50
2017-09-11T05:49:03.930Z,95763.18
2017-09-11T05:51:31.347Z,95767.67
2017-09-11T05:53:58.776Z,95767.03
2017-09-11T05:56:26.211Z,95773.63
2017-09-11T05:58:54.247Z,95768.44
2017-09-11T06:01:21.661Z,95770.61
2017-09-11T06:03:49.123Z,95774.41
2017-09-11T06:06:16.618Z,95770.30
2017-09-11T06:08:44.049Z,95775.14
2017-09-11T06:11:11.491Z,95768.83
2017-09-11T06:13:38.921Z,95761.73
2017-09-11T06:16:06.329Z,95762.26
2017-09-11T06:18:33.773Z,95757.63
2017-09-11T06:21:01.246Z,95748.85
2017-09-11T06:23:28.670Z,95755.31
2017-09-11T06:25:56.109Z,95755.31
2017-09-11T06:28:23.534Z,95748.47
2017-09-11T06:30:50.958Z,95745.30
2017-09-11T06:33:18.403Z,95737.52
2017-09-11T06:35:45.860Z,95740.36
2017-09-11T06:38:13.281Z,95743.66
2017-09-11T06:40:40.712Z,95738.71
2017-09-11T06:43:08.143Z,95738.74
2017-09-11T06:45:35.590Z,95736.00
2017-09-11T06:48:03.044Z,95727.79
2017-09-11T06:50:30.471Z,95720.11
2017-09-11T06:52:57.991Z,95726.42
2017-09-11T06:55:25.431Z,95730.95
2017-09-11T06:57:53.485Z,95726.28
2017-09-11T07:00:20.907Z,95718.37
2017-09-11T07:02:48.354Z,95712.06
2017-09-11T07:05:15.777Z,95712.06
2017-09-11T07:07:43.255Z,95711.12
2017-09-11T07:10:10.698Z,95714.38
2017-09-11T07:12:49.735Z,95710.70
2017-09-11T07:15:17.169Z,95713.59
2017-09-11T07:17:44.590Z,95709.75
2017-09-11T07:20:12.004Z,95707.01
2017-09-11T07:22:39.472Z,95717.40
2017-09-11T07:25:06.913Z,95714.80
2017-09-11T07:27:34.352Z,95726.59
2017-09-11T07:30:01.824Z,95723.30
2017-09-11T07:32:29.218Z,95730.14
2017-09-11T07:34:56.644Z,95739.86
2017-09-11T07:37:24.228Z,95740.66
2017-09-11T07:39:51.640Z,95739.30
2017-09-11T07:42:19.068Z,95741.65
2017-09-11T07:44:46.516Z,95750.81
2017-09-11T07:47:13.997Z,95743.02
2017-09-11T07:49:41.416Z,95748.48
2017-09-11T07:52:08.931Z,95752.03
2017-09-11T07:54:36.351Z,95741.92
2017-09-11T07:57:03.811Z,95742.45
2017-09-11T07:59:31.250Z,95741.65
2017-09-11T08:01:58.661Z,95745.33
2017-09-11T08:04:26.099Z,95760.67
2017-09-11T08:06:53.556Z,95767.09
2017-09-11T08:09:20.986Z,95756.70
2017-09-11T08:11:48.402Z,95758.46
2017-09-11T08:14:15.874Z,95755.20
2017-09-11T08:16:43.308Z,95754.24
2017-09-11T08:19:10.743Z,95759.72
2017-09-11T08:21:38.205Z,95748.77
2017-09-11T08:24:05.616Z,95745.08
2017-09-11T08:26:33.034Z,95750.14
2017-09-11T08:29:00.543Z,95730.41
2017-09-11T08:31:27.989Z,95727.28
2017-09-11T08:33:55.409Z,95712.77
2017-09-11T08:36:22.864Z,95714.97
2017-09-11T08:38:50.287Z,95721.92
2017-09-11T08:41:17.703Z,95715.50
2017-09-11T08:43:45.200Z,95734.41
2017-09-11T08:46:12.696Z,95734.41
2017-09-11T08:48:40.115Z,95732.34
2017-09-11T08:51:07.587Z,95724.55
2017-09-11T08:53:35.006Z,95713.71
2017-09-11T08:56:02.487Z,95713.18
2017-09-11T08:58:29.945Z,95715.64
2017-09-11T09:00:57.395Z,95704.13
2017-09-11T09:03:24.818Z,95706.76
2017-09-11T09:05:52.273Z,95713.59
2017-09-11T09:08:19.693Z,95715.25
2017-09-11T09:10:47.125Z,95711.81
2017-09-11T09:13:14.586Z,95726.31
2017-09-11T09:15:42.000Z,95724.41
2017-09-11T09:18:09.422Z,95721.42
2017-09-11T09:20:36.851Z,95717.00
2017-09-11T09:23:04.278Z,95727.42
2017-09-11T09:25:31.749Z,95731.25
2017-09-11T09:27:59.309Z,95718.52
2017-09-11T09:30:26.715Z,95712.37
2017-09-11T09:32:54.153Z,95719.35
2017-09-11T09:35:21.636Z,95721.11
2017-09-11T09:37:49.049Z,95704.41
2017-09-11T09:40:16.475Z,95701.56
2017-09-11T09:42:44.075Z,95702.51
2017-09-11T09:45:11.513Z,95709.77
2017-09-11T09:47:38.922Z,95699.63
2017-09-11T09:50:06.381Z,95686.78
2017-09-11T09:52:33.823Z,95697.59
2017-09-11T09:55:01.291Z,95689.23
2017-09-11T09:57:28.744Z,95699.35
2017-09-11T09:59:56.158Z,95701.67
2017-09-11T10:02:23.593Z,95701.56
2017-09-11T10:04:51.060Z,95704.55
2017-09-11T10:07:18.490Z,95716.22
2017-09-11T10:09:45.914Z,95708.56
2017-09-11T10:12:13.346Z,95710.63
2017-09-11T10:14:40.764Z,95712.27
2017-09-11T10:17:08.194Z,95713.39
2017-09-11T10:19:35.656Z,95727.08
2017-09-11T10:22:03.075Z,95722.13
2017-09-11T10:24:30.497Z,95725.30
2017-09-11T10:26:57.944Z,95725.97
2017-09-11T10:29:25.365Z,95732.14
2017-09-11T10:31:52.776Z,95729.96
2017-09-11T10:34:21.148Z,95732.55
2017-09-11T10:36:48.571Z,95724.90
2017-09-11T10:39:16.251Z,95731.49
2017-09-11T10:41:43.706Z,95728.61
2017-09-11T10:44:11.154Z,95727.64
2017-09-11T10:46:38.589Z,95737.36
2017-09-11T10:49:06.300Z,95745.99
2017-09-11T10:51:33.746Z,95743.79
2017-09-11T10:54:01.199Z,95738.98
2017-09-11T10:56:28.654Z,95732.28
2017-09-11T10:58:56.111Z,95728.88
2017-09-11T11:01:23.600Z,95735.16
2017-09-11T11:03:51.083Z,95737.78
2017-09-11T11:06:18.508Z,95729.00
2017-09-11T11:08:45.932Z,95727.36
2017-09-11T11:11:13.427Z,95731.74
2017-09-11T11:13:40.831Z,95736.80
2017-09-11T11:16:08.261Z,95759.69
2017-09-11T11:18:35.708Z,95763.65
2017-09-11T11:21:03.132Z,95772.01
2017-09-11T11:23:30.545Z,95775.13
2017-09-11T11:25:58.025Z,95778.30
2017-09-11T11:28:25.450Z,95789.11
2017-09-11T11:30:52.877Z,95785.53
2017-09-11T11:33:20.337Z,95789.91
2017-09-11T11:35:47.803Z,95802.91
2017-09-11T11:38:15.225Z,95806.48
2017-09-11T11:40:42.682Z,95807.99
2017-09-11T11:43:10.085Z,95813.86
2017-09-11T11:45:37.516Z,95819.19
2017-09-11T11:48:05.144Z,95815.37
2017-09-11T11:50:32.583Z,95814.56
2017-09-11T11:53:00.016Z,95810.45
2017-09-11T11:56:39.237Z,95806.06
2017-09-11T11:59:06.661Z,95808.27
2017-09-11T12:01:34.095Z,95818.95
2017-09-11T12:04:01.516Z,95815.92
2017-09-11T12:06:28.944Z,95826.45
2017-09-11T12:08:56.381Z,95820.03
2017-09-11T12:11:23.803Z,95825.40
2017-09-11T12:13:51.283Z,95829.51
2017-09-11T12:16:18.761Z,95835.94
2017-09-11T12:18:46.256Z,95836.04
2017-09-11T12:21:13.703Z,95849.63
2017-09-11T12:23:41.112Z,95850.15
2017-09-11T12:26:08.641Z,95845.63
2017-09-11T12:28:36.067Z,95843.02
2017-09-11T12:31:03.487Z,95854.40
2017-09-11T12:33:30.937Z,95854.92
2017-09-11T12:35:58.412Z,95858.75
2017-09-11T12:38:25.836Z,95857.22
2017-09-11T12:40:53.300Z,95859.84
2017-09-11T12:43:20.716Z,95864.66
2017-09-11T12:45:48.127Z,95872.34
2017-09-11T12:48:15.572Z,95877.11
2017-09-11T12:50:42.996Z,95870.69
2017-09-11T12:53:10.436Z,95856.33
2017-09-11T12:55:37.892Z,95848.11
2017-09-11T12:58:05.440Z,95848.00
2017-09-11T13:00:32.853Z,95837.13
2017-09-11T13:03:00.309Z,95840.95
2017-09-11T13:05:27.726Z,95837.69
2017-09-11T13:07:55.170Z,95827.86
2017-09-11T13:10:22.625Z,95820.90
2017-09-11T13:12:50.043Z,95822.38
2017-09-11T13:15:17.463Z,95816.34
2017-09-11T13:17:44.933Z,95826.48
2017-09-11T13:20:12.345Z,95814.86
2017-09-11T13:22:39.787Z,95809.14
2017-09-11T13:25:07.539Z,95806.65
2017-09-11T13:27:34.965Z,95813.63
2017-09-11T13:30:02.372Z,95806.12
2017-09-11T13:32:29.976Z,95798.60
2017-09-11T13:34:57.426Z,95809.56
2017-09-11T13:37:24.837Z,95800.92
2017-09-11T13:39:52.291Z,95797.06
2017-09-11T13:42:19.716Z,95793.80
2017-09-11T13:44:47.166Z,95791.48
2017-09-11T13:47:14.612Z,95797.23
2017-09-11T13:49:42.047Z,95785.72
2017-09-11T13:52:09.456Z,95794.36
2017-09-11T13:54:36.911Z,95791.20
2017-09-11T13:57:04.334Z,95793.55
2017-09-11T13:59:31.754Z,95796.28
2017-09-11T14:01:59.218Z,95800.92
2017-09-11T14:04:26.627Z,95792.57
2017-09-11T14:06:54.051Z,95790.50
2017-09-11T14:09:21.510Z,95794.50
2017-09-11T14:11:48.924Z,95807.23
2017-09-11T14:14:16.384Z,95804.19
2017-09-11T14:16:43.819Z,95806.92
2017-09-11T14:19:11.276Z,95809.81
2017-09-11T14:21:38.701Z,95801.45
2017-09-11T14:24:06.403Z,95814.73
2017-09-11T14:26:33.836Z,95808.30
2017-09-11T14:29:01.276Z,95814.59
2017-09-11T14:31:28.751Z,95818.69
2017-09-11T14:33:56.197Z,95811.56
2017-09-11T14:36:23.751Z,95831.13
2017-09-11T14:38:51.241Z,95829.64
2017-09-11T14:41:18.679Z,95824.73
2017-09-11T14:43:46.144Z,95826.23
2017-09-11T14:46:13.608Z,95820.62
2017-09-11T14:48:41.022Z,95834.17
2017-09-11T14:51:08.903Z,95840.18
2017-09-11T14:53:36.701Z,95847.02
2017-09-11T14:56:05.083Z,95849.77
2017-09-11T14:58:32.523Z,95853.76
2017-09-11T15:00:59.954Z,95846.49
2017-09-11T15:03:27.396Z,95844.59
2017-09-11T15:05:54.821Z,95836.77
2017-09-11T15:08:22.339Z,95834.59
2017-09-11T15:10:49.881Z,95830.48
2017-09-11T15:13:17.313Z,95838.31
2017-09-11T15:15:44.872Z,95822.16
2017-09-11T15:18:12.287Z,95832.13
2017-09-11T15:20:39.781Z,95837.05
2017-09-11T15:23:07.224Z,95835.16
2017-09-11T15:25:34.653Z,95836.80
2017-09-11T15:28:02.099Z,95829.14
2017-09-11T15:30:29.629Z,95832.97
2017-09-11T15:32:57.063Z,95815.84
2017-09-11T15:35:24.489Z,95826.27
2017-09-11T15:37:51.962Z,95844.59
2017-09-11T15:40:20.214Z,95856.80
2017-09-11T15:42:47.641Z,95862.98
2017-09-11T15:45:15.232Z,95859.97
2017-09-11T15:47:42.664Z,95858.84
2017-09-11T15:50:10.084Z,95861.44
2017-09-11T15:52:37.536Z,95863.37
2017-09-11T15:55:05.822Z,95861.16
2017-09-11T15:57:33.239Z,95863.76
2017-09-11T16:00:00.751Z,95875.03
2017-09-11T16:02:28.200Z,95880.61
2017-09-11T16:04:55.689Z,95874.89
2017-09-11T16:07:23.201Z,95868.04
2017-09-11T16:09:50.667Z,95866.56
2017-09-11T16:12:18.109Z,95879.47
2017-09-11T16:14:45.617Z,95886.48
2017-09-11T16:17:13.041Z,95892.53
2017-09-11T16:19:40.539Z,95887.89
2017-09-11T16:22:08.051Z,95894.17
2017-09-11T16:24:35.481Z,95886.63
2017-09-11T16:27:02.932Z,95893.48
2017-09-11T16:29:30.385Z,95896.11
2017-09-11T16:31:57.833Z,95892.11
2017-09-11T16:34:25.265Z,95895.52
2017-09-11T16:36:52.831Z,95891.83
2017-09-11T16:39:20.270Z,95892.39
2017-09-11T16:41:47.717Z,95891.83
2017-09-11T16:44:15.180Z,95895.38
2017-09-11T16:46:42.618Z,95900.19
2017-09-11T16:49:11.606Z,95891.02
2017-09-11T16:51:39.097Z,95890.18
2017-09-11T16:54:06.551Z,95895.94
2017-09-11T16:56:34.078Z,95890.98
2017-09-11T16:59:01.569Z,95894.67
2017-09-11T17:01:29.114Z,95888.53
2017-09-11T17:03:56.675Z,95898.11
2017-09-11T17:06:24.135Z,95896.33
2017-09-11T17:08:51.574Z,95909.91
2017-09-11T17:11:18.982Z,95907.98
2017-09-11T17:13:46.585Z,95914.83
2017-09-11T17:16:14.186Z,95914.13
2017-09-11T17:18:41.627Z,95911.67
2017-09-11T17:21:09.113Z,95916.76
2017-09-11T17:23:36.533Z,95916.06
2017-09-11T17:26:04.021Z,95927.96
2017-09-11T17:28:31.474Z,95931.13
2017-09-11T17:30:59.671Z,95936.03
2017-09-11T17:33:27.094Z,95938.11
2017-09-11T17:35:54.533Z,95937.83
2017-09-11T17:38:21.967Z,95936.59
2017-09-11T17:40:49.409Z,95940.53
2017-09-11T17:43:16.864Z,95944.11
2017-09-11T17:45:44.289Z,95952.19
2017-09-11T17:48:11.806Z,95950.54
2017-09-11T17:50:39.240Z,95944.92
2017-09-11T17:53:06.672Z,95943.13
2017-09-11T17:55:34.179Z,95947.91
2017-09-11T17:58:01.632Z,95946.85
2017-09-11T18:00:29.047Z,95973.40
2017-09-11T18:02:56.482Z,95974.23
2017-09-11T18:05:23.922Z,95967.50
2017-09-11T18:07:51.369Z,95968.34
2017-09-11T18:10:18.816Z,95978.73
2017-09-11T18:12:46.272Z,95985.72
2017-09-11T18:15:13.701Z,95982.70
2017-09-11T18:17:41.128Z,95991.73
2017-09-11T18:20:08.584Z,96004.72
2017-09-11T18:22:36.003Z,96003.48
2017-09-11T18:25:03.433Z,96001.59
2017-09-11T18:27:30.884Z,96011.70
2017-09-11T18:29:58.302Z,96024.31
2017-09-11T18:32:25.725Z,96029.79
2017-09-11T18:34:53.221Z,96048.15
2017-09-11T18:37:20.927Z,96048.11
2017-09-11T18:39:48.336Z,96059.77
2017-09-11T18:42:15.798Z,96063.32
2017-09-11T18:44:43.232Z,96040.46
2017-09-11T18:47:10.675Z,96028.70
2017-09-11T18:49:38.108Z,96059.21
2017-09-11T18:52:05.716Z,96080.31
2017-09-11T18:54:33.143Z,96071.67
2017-09-11T18:57:00.604Z,96070.73
2017-09-11T18:59:28.056Z,96070.59
2017-09-11T19:01:55.479Z,96073.33
2017-09-11T19:04:22.945Z,96076.91
2017-09-11T19:06:50.397Z,96071.67
2017-09-11T19:09:17.829Z,96072.91
2017-09-11T19:11:45.279Z,96068.80
2017-09-11T19:14:12.723Z,96076.87
2017-09-11T19:16:40.249Z,96073.05
2017-09-11T19:19:07.692Z,96074.55
2017-09-11T19:21:35.127Z,96073.71
2017-09-11T19:24:02.639Z,96075.61
2017-09-11T19:26:30.133Z,96084.66
2017-09-11T19:28:57.684Z,96096.14
2017-09-11T19:31:25.120Z,96093.41
2017-09-11T19:33:52.644Z,96093.83
2017-09-11T19:36:20.094Z,96096.56
2017-09-11T19:38:47.575Z,96099.27
2017-09-11T19:41:15.039Z,96101.48
2017-09-11T19:43:42.457Z,96109.03
2017-09-11T19:46:09.885Z,96121.35
2017-09-11T19:48:37.323Z,96111.77
2017-09-11T19:51:04.753Z,96112.19
2017-09-11T19:53:32.203Z,96115.31
2017-09-11T19:55:59.739Z,96124.09
2017-09-11T19:58:27.166Z,96112.02
2017-09-11T20:00:54.617Z,96115.88
2017-09-11T20:03:22.073Z,96114.36
2017-09-11T20:05:49.589Z,96116.02
2017-09-11T20:08:17.000Z,96123.81
2017-09-11T20:10:44.511Z,96116.82
2017-09-11T20:13:11.942Z,96116.82
2017-09-11T20:15:39.368Z,96120.51
2017-09-11T20:18:06.889Z,96122.30
2017-09-11T20:20:34.312Z,96123.81
2017-09-11T20:23:01.733Z,96128.86
2017-09-11T20:25:29.187Z,96119.28
2017-09-11T20:27:56.609Z,96122.26
2017-09-11T20:30:24.047Z,96117.34
2017-09-11T20:32:51.521Z,96117.34
2017-09-11T20:35:18.950Z,96114.89
2017-09-11T20:37:46.393Z,96120.78
2017-09-11T20:40:14.650Z,96126.78
2017-09-11T20:42:43.464Z,96132.55
2017-09-11T20:45:10.886Z,96133.11
2017-09-11T20:47:38.314Z,96134.05
2017-09-11T20:50:05.756Z,96129.24
2017-09-11T20:52:33.169Z,96132.41
2017-09-11T20:55:00.656Z,96122.16
2017-09-11T20:57:28.175Z,96123.10
2017-09-11T20:59:55.594Z,96134.48
2017-09-11T21:02:23.049Z,96135.42
2017-09-11T21:04:50.463Z,96139.64
2017-09-11T21:07:18.033Z,96140.48
2017-09-11T21:09:45.509Z,96138.69
2017-09-11T21:12:12.949Z,96131.98
2017-09-11T21:14:40.376Z,96121.83
2017-09-11T21:17:07.832Z,96124.56
2017-09-11T21:19:35.291Z,96127.70
2017-09-11T21:22:02.711Z,96121.52
2017-09-11T21:24:30.146Z,96118.77
2017-09-11T21:26:57.572Z,96122.17
2017-09-11T21:29:24.992Z,96126.28
2017-09-11T21:31:52.435Z,96118.62
2017-09-11T21:34:19.864Z,96119.30
2017-09-11T21:36:47.417Z,96119.82
2017-09-11T21:39:14.875Z,96110.38
2017-09-11T21:41:42.352Z,96104.05
2017-09-11T21:44:09.773Z,96106.09
2017-09-11T21:46:37.258Z,96113.35
2017-09-11T21:49:04.668Z,96111.42
2017-09-11T21:51:32.070Z,96111.17
2017-09-11T21:54:00.515Z,96113.63
2017-09-11T21:56:27.953Z,96125.63
2017-09-11T21:58:55.361Z,96129.22
2017-09-11T22:01:22.814Z,96134.41
2017-09-11T22:03:50.227Z,96139.45
2017-09-11T22:06:17.643Z,96143.70
2017-09-11T22:08:45.101Z,96141.78
2017-09-11T22:11:12.639Z,96128.09
2017-09-11T22:13:40.087Z,96128.47
2017-09-11T22:16:07.576Z,96119.44
2017-09-11T22:18:35.000Z,96120.67
2017-09-11T22:21:02.420Z,96120.67
2017-09-11T22:23:30.554Z,96110.91
2017-09-11T22:25:58.006Z,96113.13
2017-09-11T22:28:25.432Z,96112.28
2017-09-11T22:30:52.864Z,96124.60
2017-09-11T22:33:20.286Z,96123.23
2017-09-11T22:35:47.754Z,96121.47
2017-09-11T22:38:15.179Z,96123.37
2017-09-11T22:40:42.589Z,96116.23
2017-09-11T22:43:10.021Z,96121.44
2017-09-11T22:45:37.592Z,96118.13
2017-09-11T22:48:05.423Z,96114.45
2017-09-11T22:50:32.843Z,96109.11
2017-09-11T22:53:00.319Z,96113.42
2017-09-11T22:55:27.849Z,96112.27
2017-09-11T22:57:55.265Z,96104.06
2017-09-11T23:00:22.716Z,96094.41
2017-09-11T23:02:50.129Z,96093.03
2017-09-11T23:05:17.560Z,96087.42
2017-09-11T23:07:45.020Z,96090.69
2017-09-11T23:10:12.472Z,96091.77
2017-09-11T23:12:39.880Z,96095.35
2017-09-11T23:15:07.336Z,96097.53
2017-09-11T23:17:34.752Z,96097.00
2017-09-11T23:20:02.168Z,96091.66
2017-09-11T23:22:29.658Z,96093.70
2017-09-11T23:24:57.077Z,96093.80
2017-09-11T23:27:24.495Z,96093.80
2017-09-11T23:29:51.963Z,96087.94
2017-09-11T23:32:19.383Z,96089.41
2017-09-11T23:34:46.809Z,96091.24
2017-09-11T23:37:14.295Z,96092.33
2017-09-11T23:39:41.729Z,96095.45
2017-09-11T23:42:09.153Z,96098.75
2017-09-11T23:44:36.621Z,96107.20
2017-09-11T23:47:04.043Z,96104.32
2017-09-11T23:49:31.578Z,96103.66
2017-09-11T23:51:59.238Z,96097.20
2017-09-11T23:54:26.665Z,96099.55
2017-09-11T23:56:54.140Z,96092.29
2017-09-11T23:59:21.608Z,96093.38
